Time;durP1;ratioP1;P1;durP2;ratioP2;P2;SDS_P1;SDS_P2;PMS_P1;PMS_P2;Temp;Humidity;BMP_temperature;BMP_pressure;BME280_temperature;BME280_humidity;BME280_pressure;Samples;Min_cycle;Max_cycle;Signal;HPM_P1;HPM_P2
2022/01/14 00:02:22;;;;;;;80.57;26.55;;;4.90;99.90;;;;;;5004656;28;20166;-45
2022/01/14 00:04:48;;;;;;;75.55;26.98;;;5.00;99.90;;;;;;5022262;28;20416;-45
2022/01/14 00:07:14;;;;;;;62.97;25.40;;;5.00;99.90;;;;;;5022588;28;20041;-47
2022/01/14 00:09:40;;;;;;;66.65;25.13;;;4.90;99.90;;;;;;5023124;28;20115;-46
2022/01/14 00:12:15;;;;;;;81.65;26.92;;;5.00;99.90;;;;;;5023496;28;20041;-45
2022/01/14 00:14:57;;;;;;;79.38;25.95;;;4.90;99.90;;;;;;5023280;28;20057;-49
2022/01/14 00:17:23;;;;;;;73.53;27.52;;;5.00;99.90;;;;;;5024168;28;20539;-45
2022/01/14 00:19:51;;;;;;;75.05;26.77;;;5.10;99.90;;;;;;5006100;28;20133;-45
2022/01/14 00:22:18;;;;;;;61.08;25.45;;;5.10;99.90;;;;;;5023228;28;20160;-46
2022/01/14 00:33:27;;;;;;;64.90;25.10;;;5.00;99.90;;;;;;5023979;28;20072;-46
2022/01/14 00:35:49;;;;;;;66.13;25.95;;;5.10;99.90;;;;;;5025040;28;20050;-46
2022/01/14 00:38:15;;;;;;;74.10;27.30;;;5.10;99.90;;;;;;5022677;28;20115;-53
2022/01/14 00:40:41;;;;;;;68.90;24.48;;;5.00;99.90;;;;;;5023506;28;20057;-48
2022/01/14 00:43:07;;;;;;;69.20;26.10;;;5.20;99.90;;;;;;5020151;28;20058;-46
2022/01/14 00:45:33;;;;;;;59.13;24.35;;;5.20;99.90;;;;;;5019645;28;20057;-47
2022/01/14 00:48:01;;;;;;;71.43;26.30;;;5.20;99.90;;;;;;5021323;28;20589;-46
2022/01/14 00:50:27;;;;;;;53.00;24.00;;;5.10;99.90;;;;;;5016614;28;20152;-46
2022/01/14 00:52:53;;;;;;;71.72;27.48;;;5.10;99.90;;;;;;5022388;28;20176;-46
2022/01/14 00:55:27;;;;;;;67.93;26.45;;;5.10;99.90;;;;;;5022737;28;20476;-47
2022/01/14 01:00:33;;;;;;;63.92;24.27;;;5.10;99.90;;;;;;5022616;28;20670;-46
2022/01/14 01:03:00;;;;;;;60.45;25.10;;;5.20;99.90;;;;;;5021799;28;20669;-48
2022/01/14 01:05:27;;;;;;;54.83;23.85;;;5.20;99.90;;;;;;5028666;28;20079;-45
2022/01/14 01:08:04;;;;;;;63.85;24.95;;;5.10;99.90;;;;;;5015698;28;20049;-47
2022/01/14 01:10:35;;;;;;;64.13;25.45;;;5.20;99.90;;;;;;4999976;28;20049;-45
2022/01/14 01:13:49;;;;;;;63.95;25.17;;;5.10;99.90;;;;;;5022558;28;20183;-45
2022/01/14 01:15:50;;;;;;;55.90;24.23;;;5.20;99.90;;;;;;5010944;28;20505;-45
2022/01/14 01:18:18;;;;;;;59.92;25.23;;;5.30;99.90;;;;;;5022344;28;20062;-46
2022/01/14 01:20:43;;;;;;;66.00;24.33;;;5.10;99.90;;;;;;5004388;28;20053;-45
2022/01/14 01:23:09;;;;;;;53.70;25.67;;;5.30;99.90;;;;;;5021490;28;20057;-46
2022/01/14 01:25:43;;;;;;;43.80;22.25;;;5.20;99.90;;;;;;5020767;28;20060;-45
2022/01/14 01:28:09;;;;;;;57.53;24.35;;;5.30;99.90;;;;;;5021250;28;20084;-47
2022/01/14 01:33:04;;;;;;;58.42;25.77;;;5.20;99.90;;;;;;5020923;28;20573;-46
2022/01/14 01:35:31;;;;;;;60.40;27.10;;;5.30;99.90;;;;;;5021247;28;20060;-46
2022/01/14 01:37:57;;;;;;;51.70;24.10;;;5.40;99.90;;;;;;4998003;28;20041;-48
2022/01/14 01:40:25;;;;;;;57.40;26.67;;;5.30;99.90;;;;;;5003103;28;20054;-47
2022/01/14 01:42:56;;;;;;;51.10;25.60;;;5.30;99.90;;;;;;5019350;28;20085;-46
2022/01/14 01:45:26;;;;;;;55.35;24.88;;;5.30;99.90;;;;;;5022501;28;20104;-48
2022/01/14 01:47:54;;;;;;;46.28;25.35;;;5.40;99.90;;;;;;5017855;28;20060;-48
2022/01/14 01:50:25;;;;;;;50.80;25.90;;;5.50;99.90;;;;;;5022624;28;20041;-45
2022/01/14 01:52:51;;;;;;;57.03;25.88;;;5.40;99.90;;;;;;5023980;28;20045;-49
2022/01/14 01:55:17;;;;;;;69.30;27.48;;;5.50;99.90;;;;;;5018620;28;20041;-49
2022/01/14 01:57:46;;;;;;;59.72;25.63;;;5.40;99.90;;;;;;5003724;28;20136;-48
2022/01/14 02:00:16;;;;;;;55.10;26.15;;;5.50;99.90;;;;;;4982291;28;20064;-45
2022/01/14 02:02:42;;;;;;;49.40;25.23;;;5.40;99.90;;;;;;5002807;28;20447;-47
2022/01/14 02:05:10;;;;;;;57.58;25.55;;;5.30;99.90;;;;;;5023768;28;20491;-48
2022/01/14 02:07:39;;;;;;;57.92;27.85;;;5.20;99.90;;;;;;5014344;28;20558;-44
2022/01/14 02:10:05;;;;;;;56.75;27.52;;;5.30;99.90;;;;;;5012348;28;20058;-45
2022/01/14 02:12:38;;;;;;;55.08;26.60;;;5.20;99.90;;;;;;5021881;28;20057;-46
2022/01/14 02:15:25;;;;;;;61.33;27.98;;;5.10;99.90;;;;;;5020214;28;20054;-45
2022/01/14 02:23:10;;;;;;;54.55;27.58;;;5.20;99.90;;;;;;5021858;28;20061;-45
2022/01/14 02:25:36;;;;;;;55.60;27.27;;;5.20;99.90;;;;;;5002781;28;20049;-45
2022/01/14 02:28:09;;;;;;;56.63;29.23;;;5.20;99.90;;;;;;5015969;28;20045;-48
2022/01/14 02:30:40;;;;;;;49.70;26.52;;;5.20;99.90;;;;;;5017154;28;20510;-46
2022/01/14 02:33:07;;;;;;;55.85;27.27;;;5.30;99.90;;;;;;5022236;28;20376;-44
2022/01/14 02:35:36;;;;;;;44.60;25.95;;;5.10;99.90;;;;;;5022788;28;20414;-45
2022/01/14 02:38:03;;;;;;;68.40;28.85;;;5.20;99.90;;;;;;5014630;28;20060;-46
2022/01/14 02:40:29;;;;;;;55.50;26.40;;;5.30;99.90;;;;;;5004105;28;20587;-46
2022/01/14 02:42:59;;;;;;;56.38;27.75;;;5.30;99.90;;;;;;5002666;28;20460;-45
2022/01/14 02:45:30;;;;;;;62.97;28.45;;;5.20;99.90;;;;;;5016494;28;20049;-45
2022/01/14 02:47:55;;;;;;;55.35;26.55;;;5.30;99.90;;;;;;5020338;28;20119;-46
2022/01/14 02:50:23;;;;;;;50.42;25.52;;;5.20;99.90;;;;;;5006193;28;20565;-45
2022/01/14 02:55:21;;;;;;;52.35;26.73;;;5.30;99.90;;;;;;5024706;28;20076;-47
2022/01/14 02:57:49;;;;;;;58.78;28.42;;;5.20;99.90;;;;;;5018762;28;20175;-45
2022/01/14 03:00:17;;;;;;;52.70;25.73;;;5.20;99.90;;;;;;5024856;28;20497;-49
2022/01/14 03:02:49;;;;;;;47.80;25.80;;;5.20;99.90;;;;;;5023971;28;20511;-46
2022/01/14 03:05:20;;;;;;;43.38;24.65;;;5.30;99.90;;;;;;5012951;28;20096;-45
2022/01/14 03:07:46;;;;;;;49.92;27.40;;;5.10;99.90;;;;;;5023056;28;20092;-47
2022/01/14 03:10:16;;;;;;;49.75;26.65;;;5.20;99.90;;;;;;5019260;28;20049;-45
2022/01/14 03:12:43;;;;;;;52.47;27.80;;;5.20;99.90;;;;;;4990231;28;20056;-46
2022/01/14 03:15:10;;;;;;;57.13;27.40;;;5.30;99.90;;;;;;5011057;28;20045;-45
2022/01/14 03:17:37;;;;;;;46.28;26.05;;;5.30;99.90;;;;;;5014718;28;20088;-46
2022/01/14 03:20:08;;;;;;;53.00;27.67;;;5.20;99.90;;;;;;5028190;28;20091;-46
2022/01/14 03:22:36;;;;;;;52.17;27.20;;;5.20;99.90;;;;;;5008062;28;20068;-45
2022/01/14 03:27:53;;;;;;;53.88;26.65;;;5.20;99.90;;;;;;5023983;28;20053;-46
2022/01/14 03:30:19;;;;;;;58.63;28.92;;;5.20;99.90;;;;;;5023139;28;20053;-45
2022/01/14 03:32:45;;;;;;;56.70;28.77;;;5.30;99.90;;;;;;5023660;28;20053;-45
2022/01/14 03:35:12;;;;;;;52.53;27.95;;;5.30;99.90;;;;;;5004724;28;20058;-44
2022/01/14 03:37:39;;;;;;;61.17;28.42;;;5.20;99.90;;;;;;5004875;28;20087;-45
2022/01/14 03:40:07;;;;;;;59.05;28.50;;;5.30;99.90;;;;;;5022914;28;20532;-48
2022/01/14 03:42:33;;;;;;;55.38;28.20;;;5.20;99.90;;;;;;5023170;28;20080;-45
2022/01/14 03:44:59;;;;;;;58.90;28.20;;;5.20;99.90;;;;;;5024145;28;20163;-46
2022/01/14 03:47:25;;;;;;;56.67;28.02;;;5.20;99.90;;;;;;5023396;28;20568;-46
2022/01/14 03:49:51;;;;;;;49.92;26.98;;;5.20;99.90;;;;;;4999860;28;20049;-47
2022/01/14 03:52:21;;;;;;;56.60;26.95;;;5.20;99.90;;;;;;5023274;28;20418;-47
2022/01/14 03:54:48;;;;;;;53.75;26.80;;;5.30;99.90;;;;;;5023691;28;20515;-46
2022/01/14 03:57:17;;;;;;;55.83;26.70;;;5.20;99.90;;;;;;5025529;28;20053;-45
2022/01/14 03:59:43;;;;;;;54.35;26.63;;;5.30;99.90;;;;;;5023084;28;20084;-48
2022/01/14 04:02:09;;;;;;;58.13;27.08;;;5.20;99.90;;;;;;5024515;28;20137;-46
2022/01/14 04:04:35;;;;;;;59.30;27.42;;;5.30;99.90;;;;;;5028422;28;20511;-46
2022/01/14 04:07:01;;;;;;;46.28;25.92;;;5.30;99.90;;;;;;5006951;28;20050;-45
2022/01/14 04:09:27;;;;;;;48.10;26.60;;;5.10;99.90;;;;;;5015553;28;20268;-45
2022/01/14 04:11:52;;;;;;;54.42;26.58;;;5.20;99.90;;;;;;5023455;28;20266;-46
2022/01/14 04:16:52;;;;;;;43.35;24.63;;;5.20;99.90;;;;;;5029750;28;20057;-46
2022/01/14 04:19:27;;;;;;;53.17;26.60;;;5.30;99.90;;;;;;5018864;28;20478;-46
2022/01/14 04:21:54;;;;;;;42.47;24.55;;;5.20;99.90;;;;;;5023596;28;20132;-47
2022/01/14 04:24:20;;;;;;;44.92;24.88;;;5.30;99.90;;;;;;5010571;28;20052;-48
2022/01/14 04:26:48;;;;;;;57.67;26.15;;;5.20;99.90;;;;;;5023819;28;20041;-45
2022/01/14 04:29:14;;;;;;;47.30;26.00;;;5.30;99.90;;;;;;5008826;28;20056;-46
2022/01/14 04:31:40;;;;;;;48.40;25.33;;;5.30;99.90;;;;;;5023702;28;20127;-48
2022/01/14 04:34:06;;;;;;;42.85;25.80;;;5.20;99.90;;;;;;5026551;28;20040;-45
2022/01/14 04:36:33;;;;;;;43.45;25.35;;;5.20;99.90;;;;;;5013385;28;20542;-45
2022/01/14 04:38:58;;;;;;;46.45;26.55;;;5.30;99.90;;;;;;5023773;28;20057;-45
2022/01/14 04:41:24;;;;;;;53.10;26.70;;;5.20;99.90;;;;;;5023399;28;20073;-46
2022/01/14 04:43:50;;;;;;;43.63;25.38;;;5.20;99.90;;;;;;5002757;28;20433;-46
2022/01/14 04:48:56;;;;;;;54.78;27.60;;;5.20;99.90;;;;;;5022199;28;20630;-45
2022/01/14 04:51:22;;;;;;;43.22;25.13;;;5.20;99.90;;;;;;5004370;28;20061;-46
2022/01/14 04:53:48;;;;;;;46.95;26.30;;;5.30;99.90;;;;;;5004981;28;20072;-46
2022/01/14 04:56:14;;;;;;;45.85;26.95;;;5.20;99.90;;;;;;5022328;28;20563;-46
2022/01/14 04:58:43;;;;;;;51.60;27.50;;;5.20;99.90;;;;;;5005644;28;20099;-45
2022/01/14 05:01:08;;;;;;;54.05;28.00;;;5.20;99.90;;;;;;5023698;28;20049;-47
2022/01/14 05:03:34;;;;;;;40.33;27.30;;;5.20;99.90;;;;;;5022491;28;20450;-45
2022/01/14 05:06:01;;;;;;;46.83;26.40;;;5.20;99.90;;;;;;5003632;28;20473;-45
2022/01/14 05:08:36;;;;;;;47.55;26.27;;;5.30;99.90;;;;;;4980773;28;20504;-49
2022/01/14 05:11:22;;;;;;;46.20;26.15;;;5.20;99.90;;;;;;5020158;28;20057;-45
2022/01/14 05:13:48;;;;;;;49.67;27.33;;;5.20;99.90;;;;;;5003289;28;20045;-46
2022/01/14 05:16:13;;;;;;;44.65;26.85;;;5.20;99.90;;;;;;5017837;28;20554;-48
2022/01/14 05:18:40;;;;;;;47.30;27.52;;;5.30;99.90;;;;;;5027974;28;20088;-46
2022/01/14 05:21:06;;;;;;;43.28;27.02;;;5.30;99.90;;;;;;5000722;28;20042;-45
2022/01/14 05:23:32;;;;;;;47.05;27.55;;;5.20;99.90;;;;;;5022602;28;20057;-45
2022/01/14 05:25:59;;;;;;;41.30;26.13;;;5.20;99.90;;;;;;5021961;28;20146;-45
2022/01/14 05:28:25;;;;;;;43.97;24.98;;;5.30;99.90;;;;;;5022137;28;20459;-48
2022/01/14 05:30:50;;;;;;;39.50;25.48;;;5.20;99.90;;;;;;5021644;28;20045;-48
2022/01/14 05:33:19;;;;;;;41.83;25.65;;;5.30;99.90;;;;;;5017517;28;20055;-47
2022/01/14 05:35:45;;;;;;;41.92;26.08;;;5.30;99.90;;;;;;5007884;28;20053;-47
2022/01/14 05:38:11;;;;;;;53.75;27.52;;;5.20;99.90;;;;;;5026494;28;20514;-49
2022/01/14 05:40:36;;;;;;;46.10;25.90;;;5.30;99.90;;;;;;5025070;28;20170;-48
2022/01/14 05:43:02;;;;;;;40.40;24.83;;;5.30;99.90;;;;;;5004317;28;20088;-46
2022/01/14 05:45:28;;;;;;;43.70;25.75;;;5.30;99.90;;;;;;5021801;28;20796;-47
2022/01/14 05:47:55;;;;;;;44.55;25.58;;;5.20;99.90;;;;;;5019977;28;20128;-48
2022/01/14 05:50:23;;;;;;;41.40;25.98;;;5.30;99.90;;;;;;5020751;28;20049;-47
2022/01/14 05:52:49;;;;;;;39.65;24.60;;;5.30;99.90;;;;;;5021207;28;20457;-48
2022/01/14 05:55:17;;;;;;;44.22;25.90;;;5.20;99.90;;;;;;5022308;28;20104;-47
2022/01/14 05:57:43;;;;;;;36.80;25.42;;;5.20;99.90;;;;;;5019563;28;20057;-47
2022/01/14 06:00:15;;;;;;;52.03;26.35;;;5.30;99.90;;;;;;5020942;28;20092;-47
2022/01/14 06:02:40;;;;;;;48.85;26.95;;;5.20;99.90;;;;;;5022406;28;20464;-46
2022/01/14 06:05:07;;;;;;;46.42;26.77;;;5.30;99.90;;;;;;5026720;28;20144;-47
2022/01/14 06:07:33;;;;;;;55.45;27.60;;;5.20;99.90;;;;;;5023942;28;20057;-47
2022/01/14 06:09:59;;;;;;;43.92;25.75;;;5.20;99.90;;;;;;5020156;28;20545;-47
2022/01/14 06:12:25;;;;;;;50.10;26.83;;;5.20;99.90;;;;;;5021317;28;20068;-46
2022/01/14 06:14:51;;;;;;;43.58;24.77;;;5.20;99.90;;;;;;5000703;28;20225;-47
2022/01/14 06:17:17;;;;;;;44.47;26.27;;;5.20;99.90;;;;;;5007323;28;20557;-46
2022/01/14 06:19:42;;;;;;;46.90;28.13;;;5.30;99.90;;;;;;5002276;28;20085;-47
2022/01/14 06:22:08;;;;;;;43.95;28.58;;;5.20;99.90;;;;;;4998720;28;20054;-47
2022/01/14 06:24:34;;;;;;;44.08;26.60;;;5.30;99.90;;;;;;4997541;28;20570;-47
2022/01/14 06:27:01;;;;;;;42.67;25.92;;;5.20;99.90;;;;;;5003163;28;20101;-48
2022/01/14 06:29:26;;;;;;;46.05;27.70;;;5.20;99.90;;;;;;5001694;28;20520;-50
2022/01/14 06:31:52;;;;;;;48.30;26.85;;;5.20;99.90;;;;;;4996919;28;20068;-48
2022/01/14 06:34:18;;;;;;;45.42;27.42;;;5.30;99.90;;;;;;5005780;28;20504;-50
2022/01/14 06:36:44;;;;;;;47.70;27.35;;;5.30;99.90;;;;;;5003574;28;20156;-47
2022/01/14 06:39:10;;;;;;;42.83;28.40;;;5.30;99.90;;;;;;5006691;28;20077;-48
2022/01/14 06:41:37;;;;;;;38.40;26.25;;;5.30;99.90;;;;;;5004339;28;20054;-47
2022/01/14 06:44:04;;;;;;;54.40;28.85;;;5.40;99.90;;;;;;5007113;28;20061;-46
2022/01/14 06:46:29;;;;;;;45.23;27.00;;;5.40;99.90;;;;;;5003557;28;20054;-48
2022/01/14 06:48:55;;;;;;;53.60;27.15;;;5.40;99.90;;;;;;5006563;28;20111;-48
2022/01/14 06:51:21;;;;;;;45.90;26.45;;;5.40;99.90;;;;;;5004123;28;20054;-47
2022/01/14 06:53:47;;;;;;;41.95;25.55;;;5.30;99.90;;;;;;5006093;28;20046;-48
2022/01/14 06:56:14;;;;;;;40.67;24.08;;;5.40;99.90;;;;;;5005231;28;20064;-49
2022/01/14 06:58:40;;;;;;;41.63;25.35;;;5.40;99.90;;;;;;5003742;28;20104;-47
2022/01/14 07:01:07;;;;;;;43.22;24.63;;;5.40;99.90;;;;;;4998479;28;20182;-46
2022/01/14 07:03:39;;;;;;;43.70;23.25;;;5.50;99.90;;;;;;4999454;28;20677;-46
2022/01/14 07:06:05;;;;;;;38.30;22.13;;;5.50;99.90;;;;;;5005123;28;20078;-46
2022/01/14 07:08:31;;;;;;;43.58;23.90;;;5.50;99.90;;;;;;5004371;28;20128;-47
2022/01/14 07:10:56;;;;;;;36.35;23.15;;;5.50;99.90;;;;;;4999825;28;20046;-47
2022/01/14 07:13:22;;;;;;;46.90;22.75;;;5.50;99.90;;;;;;5004071;28;20653;-49
2022/01/14 07:15:48;;;;;;;38.75;22.25;;;5.60;99.90;;;;;;4985238;28;20104;-47
2022/01/14 07:18:16;;;;;;;42.00;23.10;;;5.50;99.90;;;;;;4991430;28;20420;-47
2022/01/14 07:20:42;;;;;;;41.08;21.92;;;5.60;99.90;;;;;;4991624;28;20053;-47
2022/01/14 07:23:08;;;;;;;36.97;21.38;;;5.60;99.90;;;;;;4972106;28;20046;-47
2022/01/14 07:25:34;;;;;;;36.13;21.20;;;5.60;99.90;;;;;;4975997;28;20256;-49
2022/01/14 07:28:00;;;;;;;35.13;20.15;;;5.60;99.90;;;;;;4982120;28;20501;-50
2022/01/14 07:30:26;;;;;;;33.83;19.77;;;5.60;99.90;;;;;;4983846;28;20050;-47
2022/01/14 07:32:52;;;;;;;35.58;19.05;;;5.60;99.90;;;;;;4983353;28;20533;-47
2022/01/14 07:35:18;;;;;;;38.42;19.20;;;5.60;99.90;;;;;;4981271;28;20106;-48
2022/01/14 07:37:44;;;;;;;38.70;18.52;;;5.70;99.90;;;;;;4980698;28;20536;-47
2022/01/14 07:40:10;;;;;;;40.78;19.55;;;5.70;99.90;;;;;;4989244;28;20638;-48
2022/01/14 07:42:37;;;;;;;36.60;19.95;;;5.60;99.90;;;;;;4983505;28;20108;-46
2022/01/14 07:45:04;;;;;;;36.42;19.15;;;5.70;99.90;;;;;;4973684;28;20121;-47
2022/01/14 07:47:31;;;;;;;34.88;17.98;;;5.70;99.90;;;;;;4984465;28;20046;-46
2022/01/14 07:49:56;;;;;;;35.75;17.65;;;5.60;99.90;;;;;;4984813;28;20046;-49
2022/01/14 07:52:22;;;;;;;32.65;18.13;;;5.70;99.90;;;;;;4983873;28;20596;-48
2022/01/14 07:54:48;;;;;;;33.28;17.67;;;5.60;99.90;;;;;;4984379;28;20050;-50
2022/01/14 07:57:13;;;;;;;38.15;17.60;;;5.60;99.90;;;;;;4985706;28;20057;-50
2022/01/14 07:59:40;;;;;;;25.05;16.40;;;5.70;99.90;;;;;;4986060;28;20053;-48
2022/01/14 08:02:06;;;;;;;35.03;16.00;;;5.70;99.90;;;;;;4984749;28;20385;-55
2022/01/14 08:04:35;;;;;;;31.40;15.75;;;5.70;99.90;;;;;;4982992;28;20113;-50
2022/01/14 08:07:08;;;;;;;37.05;15.50;;;5.70;99.90;;;;;;4979566;28;20054;-47
2022/01/14 08:09:39;;;;;;;31.83;16.83;;;5.70;99.90;;;;;;4975930;28;20096;-48
2022/01/14 08:12:06;;;;;;;29.67;15.13;;;5.70;99.90;;;;;;4982263;28;20501;-46
2022/01/14 08:14:32;;;;;;;31.83;15.20;;;5.70;99.90;;;;;;4993485;28;20554;-47
2022/01/14 08:16:58;;;;;;;37.20;15.80;;;5.70;99.90;;;;;;5026193;28;20126;-47
2022/01/14 08:19:24;;;;;;;27.50;14.40;;;5.70;99.90;;;;;;5012560;28;20049;-47
2022/01/14 08:21:50;;;;;;;30.38;13.30;;;5.70;99.90;;;;;;5020254;28;20049;-47
2022/01/14 08:24:16;;;;;;;24.10;12.90;;;5.80;99.90;;;;;;4995086;28;20053;-49
2022/01/14 08:26:42;;;;;;;25.45;12.18;;;5.80;99.90;;;;;;5013185;28;20049;-49
2022/01/14 08:29:07;;;;;;;25.67;12.85;;;5.80;99.90;;;;;;5024036;28;20403;-47
2022/01/14 08:31:33;;;;;;;22.92;12.23;;;5.90;99.90;;;;;;5020912;28;20526;-47
2022/01/14 08:34:00;;;;;;;34.70;13.18;;;5.90;99.90;;;;;;5005470;28;20055;-47
2022/01/14 08:36:28;;;;;;;24.27;12.20;;;5.90;99.90;;;;;;5004400;28;20503;-47
2022/01/14 08:38:54;;;;;;;21.75;10.70;;;5.90;99.90;;;;;;5005156;28;20143;-48
2022/01/14 08:41:20;;;;;;;26.13;11.45;;;5.90;99.90;;;;;;5017846;28;20088;-46
2022/01/14 08:43:49;;;;;;;27.50;11.60;;;6.00;99.90;;;;;;5022341;28;20068;-47
2022/01/14 08:46:15;;;;;;;21.85;11.23;;;5.90;99.90;;;;;;5004187;28;20128;-49
2022/01/14 08:48:40;;;;;;;23.23;11.73;;;5.90;99.90;;;;;;5023093;28;20056;-50
2022/01/14 08:51:06;;;;;;;25.67;11.45;;;6.00;99.90;;;;;;5020363;28;20392;-47
2022/01/14 08:53:32;;;;;;;26.95;14.02;;;6.10;99.90;;;;;;5020868;28;20228;-47
2022/01/14 08:55:58;;;;;;;32.03;15.35;;;6.10;99.90;;;;;;5003249;28;20115;-47
2022/01/14 08:58:24;;;;;;;26.92;15.43;;;6.10;99.90;;;;;;5022325;28;20616;-47
2022/01/14 09:00:51;;;;;;;29.02;14.25;;;6.10;99.90;;;;;;5010452;28;20053;-46
2022/01/14 09:03:17;;;;;;;28.25;14.95;;;6.20;99.90;;;;;;5016011;28;20123;-47
2022/01/14 09:05:43;;;;;;;30.45;16.85;;;6.10;99.90;;;;;;5014274;28;20058;-49
2022/01/14 09:08:08;;;;;;;29.00;11.77;;;6.20;99.90;;;;;;5006133;28;20050;-49
2022/01/14 09:10:34;;;;;;;27.85;14.30;;;6.20;99.90;;;;;;5016653;28;20045;-49
2022/01/14 09:13:00;;;;;;;29.73;13.20;;;6.20;99.90;;;;;;5013545;28;20057;-52
2022/01/14 09:15:26;;;;;;;22.85;11.80;;;6.30;99.90;;;;;;5020839;28;20071;-50
2022/01/14 09:17:51;;;;;;;22.25;10.00;;;6.30;99.90;;;;;;5018607;28;20543;-47
2022/01/14 09:20:17;;;;;;;27.17;10.23;;;6.30;99.90;;;;;;5013510;28;20539;-49
2022/01/14 09:22:49;;;;;;;23.10;9.88;;;6.30;99.90;;;;;;5015688;28;20136;-46
2022/01/14 09:25:16;;;;;;;18.58;8.95;;;6.30;99.90;;;;;;5014759;28;20060;-47
2022/01/14 09:27:42;;;;;;;22.08;9.38;;;6.30;99.90;;;;;;5009257;28;20065;-48
2022/01/14 09:30:22;;;;;;;18.35;9.02;;;6.40;99.90;;;;;;5009908;28;20037;-48
2022/01/14 09:32:48;;;;;;;21.00;9.30;;;6.50;99.90;;;;;;5017654;28;20161;-47
2022/01/14 09:35:14;;;;;;;21.38;9.05;;;6.50;99.90;;;;;;5018726;28;20470;-47
2022/01/14 09:37:45;;;;;;;21.10;7.65;;;6.50;99.90;;;;;;5019892;28;20045;-47
2022/01/14 09:40:14;;;;;;;21.92;10.45;;;6.50;99.90;;;;;;5016004;28;20574;-48
2022/01/14 09:42:40;;;;;;;26.60;8.85;;;6.60;99.90;;;;;;5013989;28;20040;-48
2022/01/14 09:45:06;;;;;;;18.92;8.25;;;6.60;99.90;;;;;;5009266;28;20053;-47
2022/01/14 09:47:32;;;;;;;17.52;7.45;;;6.70;99.90;;;;;;5020517;28;20041;-49
2022/01/14 09:49:58;;;;;;;17.50;7.63;;;6.70;99.90;;;;;;5021538;28;20052;-46
2022/01/14 09:52:24;;;;;;;18.70;7.55;;;6.80;99.90;;;;;;5001989;28;20572;-48
2022/01/14 09:54:51;;;;;;;21.08;8.48;;;6.80;99.90;;;;;;5003147;28;20046;-48
2022/01/14 09:57:18;;;;;;;19.60;6.65;;;6.80;99.90;;;;;;5021057;28;20049;-47
2022/01/14 09:59:44;;;;;;;17.27;6.53;;;7.00;99.90;;;;;;5025932;28;20636;-47
2022/01/14 10:02:30;;;;;;;24.17;6.40;;;7.00;99.90;;;;;;5013320;28;20479;-47
2022/01/14 10:04:56;;;;;;;23.75;7.43;;;7.00;99.90;;;;;;5023286;28;20057;-47
2022/01/14 10:07:22;;;;;;;18.30;6.32;;;7.00;99.90;;;;;;5006840;28;20558;-50
2022/01/14 10:09:55;;;;;;;15.73;6.03;;;7.00;99.90;;;;;;5024342;28;20049;-50
2022/01/14 10:12:20;;;;;;;17.20;5.68;;;7.20;99.90;;;;;;5016308;28;20523;-47
2022/01/14 10:15:06;;;;;;;12.90;5.82;;;7.20;99.90;;;;;;5022039;28;20057;-47
2022/01/14 10:17:38;;;;;;;17.58;6.53;;;7.20;99.90;;;;;;5019360;28;20053;-47
2022/01/14 10:20:08;;;;;;;14.00;6.65;;;7.20;99.90;;;;;;5004483;28;20057;-50
2022/01/14 10:22:38;;;;;;;15.73;5.32;;;7.20;99.90;;;;;;5005879;28;20060;-48
2022/01/14 10:25:06;;;;;;;16.27;5.60;;;7.20;99.90;;;;;;5025282;28;20049;-49
2022/01/14 10:27:45;;;;;;;15.68;6.45;;;7.20;99.90;;;;;;5007177;28;20454;-50
2022/01/14 10:30:15;;;;;;;15.95;5.20;;;7.20;99.90;;;;;;5024289;28;20458;-48
2022/01/14 10:32:43;;;;;;;18.05;5.60;;;7.30;99.90;;;;;;5023991;28;20057;-50
2022/01/14 10:35:12;;;;;;;11.63;5.78;;;7.30;99.90;;;;;;5025434;28;20045;-50
2022/01/14 10:37:39;;;;;;;16.40;5.53;;;7.30;99.90;;;;;;5005910;28;20053;-49
2022/01/14 10:40:13;;;;;;;16.63;5.90;;;7.40;99.90;;;;;;5025170;28;20057;-50
2022/01/14 10:42:43;;;;;;;19.73;5.40;;;7.30;99.90;;;;;;5023934;28;20045;-47
2022/01/14 10:45:20;;;;;;;17.13;5.43;;;7.40;99.90;;;;;;5024291;28;20053;-49
2022/01/14 10:48:12;;;;;;;17.90;5.97;;;7.40;99.90;;;;;;5023496;28;20179;-46
2022/01/14 10:50:46;;;;;;;14.45;5.18;;;7.40;99.90;;;;;;5021929;28;20065;-47
2022/01/14 10:53:15;;;;;;;15.60;4.68;;;7.40;99.90;;;;;;5023137;28;20060;-48
2022/01/14 10:55:48;;;;;;;17.77;5.97;;;7.40;99.90;;;;;;5022322;28;20053;-47
2022/01/14 10:58:16;;;;;;;17.93;5.77;;;7.40;99.90;;;;;;5006205;28;20057;-47
2022/01/14 11:00:48;;;;;;;14.77;5.28;;;7.40;99.90;;;;;;5023791;28;20602;-49
2022/01/14 11:03:30;;;;;;;11.75;4.78;;;7.40;99.90;;;;;;5002812;28;20662;-47
2022/01/14 11:06:14;;;;;;;19.67;4.88;;;7.40;99.90;;;;;;5015231;28;20574;-48
2022/01/14 11:08:39;;;;;;;14.80;4.30;;;7.40;99.90;;;;;;5021349;28;20056;-47
2022/01/14 11:11:05;;;;;;;14.48;4.78;;;7.30;99.90;;;;;;5006522;28;20420;-47
2022/01/14 11:13:31;;;;;;;12.32;4.20;;;7.30;99.90;;;;;;4993097;28;20061;-47
2022/01/14 11:15:57;;;;;;;16.15;5.80;;;7.30;99.90;;;;;;5023251;28;20053;-47
2022/01/14 11:18:24;;;;;;;16.02;4.72;;;7.30;99.90;;;;;;5023844;28;20131;-48
2022/01/14 11:23:35;;;;;;;13.05;4.55;;;7.30;99.90;;;;;;5013989;28;20111;-48
2022/01/14 11:26:09;;;;;;;17.98;4.82;;;7.40;99.90;;;;;;5024571;28;20427;-47
2022/01/14 11:28:38;;;;;;;13.23;5.45;;;7.40;99.90;;;;;;5025077;28;20551;-50
2022/01/14 11:31:26;;;;;;;15.10;4.30;;;7.30;99.90;;;;;;5025075;28;20050;-50
2022/01/14 11:33:53;;;;;;;16.40;4.38;;;7.30;99.90;;;;;;5029163;28;20119;-49
2022/01/14 11:36:19;;;;;;;16.48;4.88;;;7.30;99.90;;;;;;5006195;28;20081;-51
2022/01/14 11:38:46;;;;;;;13.40;5.32;;;7.30;99.90;;;;;;5036277;28;20135;-47
2022/01/14 11:41:18;;;;;;;13.40;4.38;;;7.30;99.90;;;;;;5012135;28;20049;-51
2022/01/14 11:43:48;;;;;;;20.15;5.30;;;7.30;99.90;;;;;;5001437;28;20104;-48
2022/01/14 11:46:36;;;;;;;14.68;4.60;;;7.30;99.90;;;;;;5006538;28;20595;-47
2022/01/14 11:49:34;;;;;;;15.93;4.50;;;7.30;99.90;;;;;;4993179;28;20048;-48
2022/01/14 11:52:03;;;;;;;15.25;5.82;;;7.30;99.90;;;;;;5023836;28;20160;-49
2022/01/14 11:54:58;;;;;;;22.23;5.38;;;7.30;99.90;;;;;;5005043;28;20607;-49
2022/01/14 11:57:45;;;;;;;16.73;4.70;;;7.30;99.90;;;;;;4944604;28;20059;-48
2022/01/14 12:00:30;;;;;;;15.27;4.45;;;7.30;99.90;;;;;;4958649;28;20161;-47
2022/01/14 12:03:21;;;;;;;12.07;3.97;;;7.30;99.90;;;;;;4957296;28;20625;-48
2022/01/14 12:05:50;;;;;;;13.13;4.28;;;7.30;99.90;;;;;;4959448;28;20054;-47
2022/01/14 12:08:19;;;;;;;17.88;5.47;;;7.30;99.90;;;;;;4962113;28;20051;-47
2022/01/14 12:10:53;;;;;;;19.92;5.03;;;7.30;99.90;;;;;;4961729;28;20498;-47
2022/01/14 12:13:47;;;;;;;24.10;5.28;;;7.40;99.90;;;;;;4960783;28;20543;-47
2022/01/14 12:16:18;;;;;;;;;;;7.40;99.90;;;;;;4960002;28;20066;-49
2022/01/14 12:19:00;;;;;;;16.08;5.03;;;7.40;99.90;;;;;;4961321;28;20491;-47
2022/01/14 12:21:44;;;;;;;18.33;5.10;;;7.40;99.90;;;;;;4960174;28;20146;-48
2022/01/14 12:24:18;;;;;;;;;;;7.40;99.90;;;;;;4961415;28;20129;-49
2022/01/14 12:27:08;;;;;;;16.67;4.95;;;7.40;99.90;;;;;;4969659;28;19926;-49
2022/01/14 12:29:36;;;;;;;16.50;4.68;;;7.40;99.90;;;;;;4976248;28;20480;-50
2022/01/14 12:32:05;;;;;;;19.67;6.43;;;7.40;99.90;;;;;;4975516;28;20054;-47
2022/01/14 12:34:56;;;;;;;23.85;6.90;;;7.40;99.90;;;;;;5011016;28;20053;-47
2022/01/14 12:37:39;;;;;;;14.23;5.20;;;7.40;99.90;;;;;;5006145;28;20472;-47
2022/01/14 12:40:12;;;;;;;17.92;5.45;;;7.50;99.90;;;;;;5017619;28;20041;-47
2022/01/14 12:42:39;;;;;;;25.05;5.90;;;7.40;99.90;;;;;;5021916;28;20400;-51
2022/01/14 12:45:07;;;;;;;19.52;5.93;;;7.50;99.90;;;;;;5015289;28;20247;-49
2022/01/14 12:47:39;;;;;;;17.13;7.60;;;7.50;99.90;;;;;;5011786;28;20056;-50
2022/01/14 12:50:08;;;;;;;21.25;5.65;;;7.50;99.90;;;;;;5015603;28;20854;-51
2022/01/14 12:52:48;;;;;;;19.10;5.57;;;7.50;99.90;;;;;;5022838;28;20041;-47
2022/01/14 12:55:15;;;;;;;14.50;5.75;;;7.50;99.90;;;;;;5023376;28;20114;-50
2022/01/14 12:57:41;;;;;;;18.88;6.28;;;7.50;99.90;;;;;;4999611;28;20085;-49
2022/01/14 13:00:09;;;;;;;21.90;7.43;;;7.50;99.90;;;;;;5022796;28;20120;-47
2022/01/14 13:02:35;;;;;;;20.90;6.35;;;7.50;99.90;;;;;;5022039;28;20102;-47
2022/01/14 13:05:05;;;;;;;20.85;6.03;;;7.50;99.90;;;;;;5021058;28;20057;-46
2022/01/14 13:07:32;;;;;;;20.30;6.97;;;7.60;99.90;;;;;;5015620;28;20084;-46
2022/01/14 13:10:00;;;;;;;23.20;6.90;;;7.50;99.90;;;;;;5010884;28;20124;-50
2022/01/14 13:12:32;;;;;;;24.65;6.07;;;7.60;99.90;;;;;;5021407;28;20060;-48
2022/01/14 13:15:04;;;;;;;21.00;6.57;;;7.50;99.90;;;;;;4999126;28;20058;-47
2022/01/14 13:17:35;;;;;;;17.85;6.78;;;7.60;99.90;;;;;;4990591;28;20473;-49
2022/01/14 13:20:08;;;;;;;18.30;5.88;;;7.60;99.90;;;;;;5001894;28;20049;-47
2022/01/14 13:22:34;;;;;;;16.20;6.72;;;7.60;99.90;;;;;;5002440;28;20053;-47